createdAt,value
2022-08-07T00:00:35.170Z,102651.41
2022-08-07T00:03:06.556Z,102657.56
2022-08-07T00:05:38.129Z,102644.84
2022-08-07T00:08:08.033Z,102651.50
2022-08-07T00:10:48.007Z,102650.81
2022-08-07T00:13:25.466Z,102642.03
2022-08-07T00:15:56.397Z,102641.94
2022-08-07T00:18:27.183Z,102547.31
2022-08-07T00:21:01.411Z,102643.00
2022-08-07T00:23:34.979Z,102637.84
2022-08-07T00:26:13.074Z,102613.06
2022-08-07T00:28:55.755Z,102634.47
2022-08-07T00:31:26.252Z,102627.50
2022-08-07T00:34:08.750Z,102640.66
2022-08-07T00:36:42.719Z,102638.38
2022-08-07T00:39:16.883Z,102632.03
2022-08-07T00:42:01.415Z,102627.72
2022-08-07T00:44:33.522Z,102626.88
2022-08-07T00:47:03.049Z,102632.97
2022-08-07T00:50:19.370Z,102635.75
2022-08-07T00:52:26.779Z,102635.84
2022-08-07T00:54:56.190Z,102622.16
2022-08-07T00:57:26.294Z,102622.78
2022-08-07T01:00:00.269Z,102623.50
2022-08-07T01:02:31.004Z,102624.56
2022-08-07T01:05:00.486Z,102627.19
2022-08-07T01:07:34.056Z,102623.75
2022-08-07T01:10:06.537Z,102619.59
2022-08-07T01:12:53.779Z,102603.97
2022-08-07T01:16:00.507Z,102620.63
2022-08-07T01:18:20.249Z,102614.84
2022-08-07T01:21:22.549Z,102585.06
2022-08-07T01:23:57.721Z,102611.66
2022-08-07T01:26:28.242Z,102612.53
2022-08-07T01:28:57.202Z,102611.78
2022-08-07T01:31:41.580Z,102613.53
2022-08-07T01:34:15.533Z,102606.69
2022-08-07T01:36:51.404Z,102603.50
2022-08-07T01:39:41.183Z,102614.75
2022-08-07T01:42:58.645Z,102613.22
2022-08-07T01:45:36.227Z,102608.13
2022-08-07T01:48:18.139Z,102608.94
2022-08-07T01:50:58.283Z,102609.88
2022-08-07T01:54:09.642Z,102607.44
2022-08-07T01:56:29.042Z,102602.13
2022-08-07T01:59:06.642Z,102605.66
2022-08-07T02:01:59.747Z,102611.75
2022-08-07T02:04:34.919Z,102600.28
2022-08-07T02:07:08.202Z,102602.28
2022-08-07T02:09:52.707Z,102601.47
2022-08-07T02:12:33.435Z,102603.97
2022-08-07T02:15:06.787Z,102603.13
2022-08-07T02:17:49.843Z,102591.88
2022-08-07T02:20:24.463Z,102593.72
2022-08-07T02:23:02.758Z,102587.88
2022-08-07T02:26:30.527Z,102591.22
2022-08-07T02:28:30.095Z,102596.56
2022-08-07T02:31:18.875Z,102587.00
2022-08-07T02:34:10.926Z,102571.91
2022-08-07T02:36:49.457Z,102581.13
2022-08-07T02:39:43.113Z,102577.66
2022-08-07T02:42:16.209Z,102581.31
2022-08-07T02:44:51.922Z,102586.59
2022-08-07T02:48:01.676Z,102578.03
2022-08-07T02:50:36.097Z,102580.66
2022-08-07T02:53:11.827Z,102585.00
2022-08-07T02:56:04.169Z,102605.06
2022-08-07T02:58:39.769Z,102586.66
2022-08-07T03:01:36.576Z,102587.63
2022-08-07T03:04:14.653Z,102585.81
2022-08-07T03:06:48.408Z,102584.88
2022-08-07T03:09:43.668Z,102579.94
2022-08-07T03:12:22.537Z,102579.91
2022-08-07T03:15:07.891Z,102582.31
2022-08-07T03:17:53.806Z,102585.03
2022-08-07T03:20:25.719Z,102585.06
2022-08-07T03:22:57.000Z,102579.03
2022-08-07T03:25:32.417Z,102570.31
2022-08-07T03:28:37.217Z,102567.81
2022-08-07T03:31:24.612Z,102574.78
2022-08-07T03:34:02.790Z,102579.84
2022-08-07T03:36:37.428Z,102571.06
2022-08-07T03:39:13.180Z,102570.31
2022-08-07T03:41:47.773Z,102575.72
2022-08-07T03:44:31.890Z,102567.81
2022-08-07T03:47:13.854Z,102559.16
2022-08-07T03:49:53.474Z,102567.06
2022-08-07T03:52:29.359Z,102567.13
2022-08-07T03:55:08.954Z,102553.66
2022-08-07T03:58:33.181Z,102566.41
2022-08-07T04:00:39.705Z,102560.28
2022-08-07T04:03:18.359Z,102561.97
2022-08-07T04:05:52.784Z,102566.41
2022-08-07T04:08:29.215Z,102561.25
2022-08-07T04:12:25.367Z,102557.03
2022-08-07T04:14:09.529Z,102568.28
2022-08-07T04:16:43.014Z,102560.41
2022-08-07T04:19:51.191Z,102561.38
2022-08-07T04:22:20.830Z,102564.09
2022-08-07T04:24:53.114Z,102566.69
2022-08-07T04:27:35.950Z,102570.09
2022-08-07T04:30:35.909Z,102562.41
2022-08-07T04:33:09.702Z,102562.50
2022-08-07T04:35:50.946Z,102559.75
2022-08-07T04:38:26.180Z,102570.13
2022-08-07T04:40:56.522Z,102571.81
2022-08-07T04:44:10.046Z,102568.63
2022-08-07T04:46:35.938Z,102579.19
2022-08-07T04:49:37.854Z,102584.28
2022-08-07T04:52:19.977Z,102597.25
2022-08-07T04:55:14.820Z,102587.63
2022-08-07T04:58:12.101Z,102587.63
2022-08-07T05:00:51.637Z,102591.66
2022-08-07T05:04:01.005Z,102601.63
2022-08-07T05:06:23.835Z,102600.28
2022-08-07T05:09:06.153Z,102603.91
2022-08-07T05:11:57.261Z,102599.78
2022-08-07T05:14:52.169Z,102597.03
2022-08-07T05:17:52.777Z,102593.75
2022-08-07T05:20:17.152Z,102602.13
2022-08-07T05:22:48.774Z,102591.00
2022-08-07T05:25:25.501Z,102584.50
2022-08-07T05:28:20.763Z,102594.03
2022-08-07T05:30:54.091Z,102587.84
2022-08-07T05:33:25.981Z,102599.16
2022-08-07T05:35:57.440Z,102603.50
2022-08-07T05:38:59.511Z,102593.78
2022-08-07T05:41:18.927Z,102600.66
2022-08-07T05:44:07.970Z,102606.22
2022-08-07T05:46:43.896Z,102598.66
2022-08-07T05:49:14.451Z,102603.81
2022-08-07T05:51:47.912Z,102592.63
2022-08-07T05:54:30.541Z,102591.72
2022-08-07T05:57:10.837Z,102588.69
2022-08-07T05:59:56.211Z,102590.72
2022-08-07T06:02:34.191Z,102501.66
2022-08-07T06:05:10.749Z,102593.69
2022-08-07T06:08:13.570Z,102587.69
2022-08-07T06:10:33.282Z,102592.88
2022-08-07T06:13:04.244Z,102592.63
2022-08-07T06:15:38.939Z,102587.66
2022-08-07T06:18:14.465Z,102586.63
2022-08-07T06:22:16.022Z,102591.69
2022-08-07T06:24:37.509Z,102589.53
2022-08-07T06:26:32.921Z,102595.34
2022-08-07T06:29:06.547Z,102608.72
2022-08-07T06:31:47.289Z,102605.38
2022-08-07T06:34:20.778Z,102608.00
2022-08-07T06:36:51.910Z,102600.31
2022-08-07T06:40:17.062Z,102600.31
2022-08-07T06:42:20.379Z,102594.53
2022-08-07T06:45:21.746Z,102600.50
2022-08-07T06:47:59.869Z,102602.44
2022-08-07T06:50:43.345Z,102602.69
2022-08-07T06:55:29.757Z,102599.94
2022-08-07T06:56:15.935Z,102609.13
2022-08-07T07:00:13.247Z,102574.19
2022-08-07T07:01:50.982Z,102604.69
2022-08-07T07:04:32.505Z,102608.97
2022-08-07T07:07:19.006Z,102602.44
2022-08-07T07:09:56.122Z,102593.03
2022-08-07T07:12:53.774Z,102607.03
2022-08-07T07:15:32.602Z,102606.09
2022-08-07T07:18:15.244Z,102604.94
2022-08-07T07:21:13.583Z,102602.78
2022-08-07T07:24:08.774Z,102606.72
2022-08-07T07:26:51.816Z,102598.97
2022-08-07T07:29:39.147Z,102593.25
2022-08-07T07:32:16.065Z,102596.72
2022-08-07T07:34:50.865Z,102597.06
2022-08-07T07:37:45.497Z,102589.75
2022-08-07T07:40:17.914Z,102562.69
2022-08-07T07:42:51.403Z,102593.19
2022-08-07T07:46:40.358Z,102584.44
2022-08-07T07:48:35.146Z,102586.00
2022-08-07T07:51:08.611Z,102558.97
2022-08-07T07:53:51.320Z,102585.78
2022-08-07T07:56:29.782Z,102566.59
2022-08-07T07:59:02.065Z,102571.38
2022-08-07T08:02:03.464Z,102570.19
2022-08-07T08:04:25.766Z,102577.31
2022-08-07T08:07:02.696Z,102570.91
2022-08-07T08:09:52.612Z,102568.56
2022-08-07T08:12:51.981Z,102573.75
2022-08-07T08:15:23.333Z,102564.31
2022-08-07T08:18:36.831Z,102567.25
2022-08-07T08:20:43.595Z,102570.38
2022-08-07T08:23:38.005Z,102553.50
2022-08-07T08:26:26.721Z,102565.78
2022-08-07T08:28:59.523Z,102564.38
2022-08-07T08:31:58.674Z,102571.91
2022-08-07T08:34:34.819Z,102560.81
2022-08-07T08:37:10.007Z,102559.41
2022-08-07T08:39:59.378Z,102554.47
2022-08-07T08:42:33.004Z,102534.25
2022-08-07T08:45:14.013Z,102562.31
2022-08-07T08:47:55.370Z,102562.69
2022-08-07T08:50:34.861Z,102547.72
2022-08-07T08:53:20.411Z,102532.19
2022-08-07T08:55:58.489Z,102554.03
2022-08-07T08:58:36.235Z,102546.69
2022-08-07T09:01:14.595Z,102552.09
2022-08-07T09:03:55.333Z,102552.94
2022-08-07T09:06:47.680Z,102543.00
2022-08-07T09:09:36.815Z,102562.41
2022-08-07T09:12:20.246Z,102384.75
2022-08-07T09:16:23.677Z,102559.31
2022-08-07T09:18:22.691Z,102568.22
2022-08-07T09:21:04.987Z,102554.63
2022-08-07T09:24:31.269Z,102553.81
2022-08-07T09:26:47.775Z,102563.09
2022-08-07T09:30:05.651Z,102548.59
2022-08-07T09:32:31.115Z,102557.84
2022-08-07T09:36:04.082Z,102555.78
2022-08-07T09:38:14.090Z,102550.22
2022-08-07T09:41:04.075Z,102548.06
2022-08-07T09:44:05.934Z,102551.06
2022-08-07T09:47:50.660Z,102541.41
2022-08-07T09:50:03.930Z,102544.91
2022-08-07T09:52:52.148Z,102505.75
2022-08-07T09:55:29.264Z,102532.19
2022-08-07T09:58:32.027Z,102528.56
2022-08-07T10:01:50.970Z,102526.34
2022-08-07T10:04:28.162Z,102512.75
2022-08-07T10:07:25.606Z,102520.72
2022-08-07T10:10:21.790Z,102513.66
2022-08-07T10:13:15.833Z,102510.31
2022-08-07T10:16:13.241Z,102499.28
2022-08-07T10:19:11.289Z,102505.38
2022-08-07T10:22:15.889Z,102497.16
2022-08-07T10:25:05.019Z,102496.03
2022-08-07T10:27:51.297Z,102492.03
2022-08-07T10:30:28.676Z,102488.13
2022-08-07T10:34:06.332Z,102481.56
2022-08-07T10:36:29.815Z,102495.47
2022-08-07T10:39:06.528Z,102483.81
2022-08-07T10:41:47.507Z,102483.47
2022-08-07T10:44:37.835Z,102481.66
2022-08-07T10:47:27.130Z,102478.47
2022-08-07T10:50:16.160Z,102465.50
2022-08-07T10:52:59.927Z,102463.81
2022-08-07T10:55:46.846Z,102464.94
2022-08-07T10:58:36.719Z,102450.78
2022-08-07T11:01:23.958Z,102469.28
2022-08-07T11:04:05.678Z,102428.06
2022-08-07T11:07:02.922Z,102453.81
2022-08-07T11:10:08.920Z,102452.78
2022-08-07T11:12:43.350Z,102456.19
2022-08-07T11:15:21.572Z,102456.94
2022-08-07T11:21:40.830Z,102447.19
2022-08-07T11:24:21.656Z,102445.09
2022-08-07T11:26:56.941Z,102438.28
2022-08-07T11:29:42.762Z,102439.22
2022-08-07T11:32:26.198Z,102433.28
2022-08-07T11:35:00.704Z,102431.31
2022-08-07T11:37:58.088Z,102428.19
2022-08-07T11:40:49.827Z,102428.97
2022-08-07T11:43:29.543Z,102423.09
2022-08-07T11:46:23.343Z,102410.38
2022-08-07T11:49:50.194Z,102420.59
2022-08-07T11:52:10.270Z,102423.97
2022-08-07T11:54:59.435Z,102418.72
2022-08-07T11:57:57.729Z,102418.53
2022-08-07T12:00:33.987Z,102408.38
2022-08-07T12:03:46.990Z,102409.28
2022-08-07T12:06:37.739Z,102414.56
2022-08-07T12:09:16.073Z,102411.72
2022-08-07T12:12:08.849Z,102409.28
2022-08-07T12:14:51.485Z,102409.44
2022-08-07T12:17:39.103Z,102400.13
2022-08-07T12:20:30.193Z,102405.69
2022-08-07T12:23:37.244Z,102299.09
2022-08-07T12:26:29.316Z,102394.72
2022-08-07T12:29:08.439Z,102404.13
2022-08-07T12:32:01.829Z,102399.34
2022-08-07T12:34:36.017Z,102400.25
2022-08-07T12:37:08.671Z,102322.19
2022-08-07T12:39:57.459Z,102396.00
2022-08-07T12:42:32.028Z,102392.34
2022-08-07T12:45:09.938Z,102398.97
2022-08-07T12:47:49.470Z,102393.44
2022-08-07T12:50:39.081Z,102400.13
2022-08-07T12:53:17.759Z,102391.72
2022-08-07T12:56:02.989Z,102373.38
2022-08-07T12:58:39.377Z,102379.38
2022-08-07T13:01:20.389Z,102380.19
2022-08-07T13:04:34.567Z,102383.78
2022-08-07T13:08:14.076Z,102387.19
2022-08-07T13:10:51.372Z,102387.19
2022-08-07T13:13:47.477Z,102384.81
2022-08-07T13:16:25.853Z,102380.63
2022-08-07T13:19:03.962Z,102399.69
2022-08-07T13:21:57.530Z,102356.09
2022-08-07T13:24:35.845Z,102365.44
2022-08-07T13:27:20.588Z,102368.75
2022-08-07T13:30:07.471Z,102353.13
2022-08-07T13:32:54.864Z,102381.53
2022-08-07T13:36:00.416Z,102388.44
2022-08-07T13:38:28.481Z,102370.56
2022-08-07T13:41:06.519Z,102381.09
2022-08-07T13:43:43.584Z,102354.44
2022-08-07T13:46:28.266Z,102380.97
2022-08-07T13:49:04.265Z,102380.69
2022-08-07T13:52:22.927Z,102362.78
2022-08-07T13:54:33.551Z,102381.53
2022-08-07T13:57:08.288Z,102381.34
2022-08-07T13:59:39.667Z,102381.06
2022-08-07T14:02:20.141Z,102385.25
2022-08-07T14:05:07.621Z,102391.69
2022-08-07T14:07:59.538Z,102377.44
2022-08-07T14:10:42.242Z,102371.59
2022-08-07T14:13:17.904Z,102376.84
2022-08-07T14:15:56.949Z,102381.16
2022-08-07T14:18:33.193Z,102379.69
2022-08-07T14:22:00.469Z,102389.41
2022-08-07T14:24:05.032Z,102392.31
2022-08-07T14:26:40.559Z,102399.59
2022-08-07T14:30:05.561Z,102388.44
2022-08-07T14:32:07.920Z,102395.25
2022-08-07T14:34:45.638Z,102387.97
2022-08-07T14:37:18.375Z,102395.00
2022-08-07T14:40:17.300Z,102396.19
2022-08-07T14:42:59.948Z,102366.59
2022-08-07T14:45:46.874Z,102385.91
2022-08-07T14:48:27.497Z,102388.47
2022-08-07T14:51:00.294Z,102383.88
2022-08-07T14:56:30.132Z,102373.22
2022-08-07T14:59:13.772Z,102385.44
2022-08-07T15:01:58.191Z,102380.22
2022-08-07T15:04:28.640Z,102376.50
2022-08-07T15:07:00.981Z,102372.38
2022-08-07T15:12:26.211Z,102381.94
2022-08-07T15:15:07.693Z,102373.31
2022-08-07T15:20:32.822Z,102373.69
2022-08-07T15:23:16.870Z,102374.81
2022-08-07T15:25:56.162Z,102366.31
2022-08-07T15:28:34.616Z,102336.47
2022-08-07T15:31:10.541Z,102362.34
2022-08-07T15:33:43.044Z,102368.88
2022-08-07T15:36:13.653Z,102371.28
2022-08-07T15:44:52.705Z,102360.28
2022-08-07T15:48:01.174Z,102358.72
2022-08-07T15:53:11.506Z,102351.22
2022-08-07T15:55:58.681Z,102338.41
2022-08-07T15:58:38.505Z,102354.00
2022-08-07T16:01:20.187Z,102350.38
2022-08-07T16:03:54.387Z,102348.91
2022-08-07T16:06:31.544Z,102343.22
2022-08-07T16:09:02.604Z,102347.88
2022-08-07T16:11:53.414Z,102346.28
2022-08-07T16:14:45.573Z,102339.72
2022-08-07T16:18:02.553Z,102329.34
2022-08-07T16:21:43.733Z,102339.13
2022-08-07T16:23:58.737Z,102331.16
2022-08-07T16:26:58.761Z,102339.63
2022-08-07T16:30:10.962Z,102339.81
2022-08-07T16:32:46.286Z,102340.75
2022-08-07T16:35:59.368Z,102341.81
2022-08-07T16:39:00.453Z,102339.97
2022-08-07T16:42:15.968Z,102339.19
2022-08-07T16:45:19.273Z,102340.19
2022-08-07T16:48:37.697Z,102340.03
2022-08-07T16:51:54.645Z,102335.94
2022-08-07T16:54:37.470Z,102345.59
2022-08-07T16:58:03.545Z,102351.75
2022-08-07T17:00:30.071Z,102344.88
2022-08-07T17:03:17.679Z,102343.63
2022-08-07T17:06:29.810Z,102238.91
2022-08-07T17:09:15.797Z,102343.78
2022-08-07T17:12:36.692Z,102344.50
2022-08-07T17:15:02.568Z,102347.13
2022-08-07T17:17:45.995Z,102341.50
2022-08-07T17:20:30.100Z,102335.59
2022-08-07T17:23:08.615Z,102342.59
2022-08-07T17:25:54.585Z,102335.91
2022-08-07T17:28:32.340Z,102338.25
2022-08-07T17:31:16.137Z,102322.06
2022-08-07T17:34:15.134Z,102331.81
2022-08-07T17:36:57.540Z,102330.16
2022-08-07T17:39:57.647Z,102333.75
2022-08-07T17:42:59.729Z,102327.81
2022-08-07T17:45:35.112Z,102319.34
2022-08-07T17:48:11.113Z,102327.19
2022-08-07T17:50:54.481Z,102328.94
2022-08-07T17:54:00.591Z,102335.91
2022-08-07T17:56:28.849Z,102324.28
2022-08-07T17:59:04.698Z,102326.38
2022-08-07T18:01:45.816Z,102333.91
2022-08-07T18:04:30.856Z,102328.81
2022-08-07T18:07:23.736Z,102248.50
2022-08-07T18:10:07.167Z,102327.44
2022-08-07T18:13:06.881Z,102326.56
2022-08-07T18:15:56.547Z,102334.69
2022-08-07T18:18:45.286Z,102335.81
2022-08-07T18:21:51.572Z,102236.13
2022-08-07T18:24:28.516Z,102330.84
2022-08-07T18:27:39.102Z,102339.09
2022-08-07T18:30:31.518Z,102347.53
2022-08-07T18:33:55.315Z,102346.25
2022-08-07T18:36:33.783Z,102338.47
2022-08-07T18:40:07.791Z,102340.94
2022-08-07T18:42:18.707Z,102348.16
2022-08-07T18:45:44.431Z,102342.59
2022-08-07T18:48:00.976Z,102346.06
2022-08-07T18:50:54.393Z,102342.50
2022-08-07T18:53:39.404Z,102350.19
2022-08-07T18:56:17.485Z,102339.22
2022-08-07T18:59:46.898Z,102345.38
2022-08-07T19:02:34.480Z,102355.22
2022-08-07T19:05:15.859Z,102328.84
2022-08-07T19:07:58.643Z,102241.78
2022-08-07T19:10:49.585Z,102353.47
2022-08-07T19:13:27.556Z,102364.81
2022-08-07T19:17:04.141Z,102360.38
2022-08-07T19:19:00.817Z,102363.81
2022-08-07T19:21:47.564Z,102362.91
2022-08-07T19:24:30.749Z,102369.22
2022-08-07T19:28:30.083Z,102379.06
2022-08-07T19:31:02.071Z,102376.81
2022-08-07T19:33:02.419Z,102370.66
2022-08-07T19:35:41.402Z,102385.41
2022-08-07T19:38:17.108Z,102339.50
2022-08-07T19:40:51.531Z,102357.94
2022-08-07T19:43:50.172Z,102391.50
2022-08-07T19:46:18.747Z,102372.50
2022-08-07T19:48:53.560Z,102277.56
2022-08-07T19:51:51.968Z,102382.22
2022-08-07T19:54:33.669Z,102402.28
2022-08-07T19:58:03.203Z,102389.03
2022-08-07T20:00:00.647Z,102401.63
2022-08-07T20:02:39.393Z,102409.59
2022-08-07T20:05:13.548Z,102408.91
2022-08-07T20:07:50.692Z,102398.03
2022-08-07T20:10:38.116Z,102409.81
2022-08-07T20:13:23.951Z,102409.59
2022-08-07T20:15:58.344Z,102416.03
2022-08-07T20:18:32.216Z,102418.66
2022-08-07T20:21:20.937Z,102417.00
2022-08-07T20:24:00.365Z,102421.47
2022-08-07T20:26:44.734Z,102415.78
2022-08-07T20:29:49.210Z,102410.34
2022-08-07T20:32:11.451Z,102396.72
2022-08-07T20:34:53.923Z,102410.75
2022-08-07T20:37:29.429Z,102414.94
2022-08-07T20:40:02.466Z,102413.53
2022-08-07T20:42:38.612Z,102410.41
2022-08-07T20:45:32.651Z,102410.13
2022-08-07T20:48:05.129Z,102411.22
2022-08-07T20:50:34.984Z,102414.56
2022-08-07T20:53:05.786Z,102410.94
2022-08-07T20:55:37.312Z,102407.53
2022-08-07T20:58:19.225Z,102312.00
2022-08-07T21:01:07.326Z,102414.34
2022-08-07T21:04:19.529Z,102411.72
2022-08-07T21:06:53.462Z,102413.41
2022-08-07T21:09:51.635Z,102413.31
2022-08-07T21:12:28.503Z,102413.41
2022-08-07T21:15:02.888Z,102415.72
2022-08-07T21:18:05.819Z,102422.63
2022-08-07T21:20:29.701Z,102424.25
2022-08-07T21:23:09.057Z,102425.56
2022-08-07T21:25:56.512Z,102416.06
2022-08-07T21:28:49.035Z,102420.31
2022-08-07T21:32:42.604Z,102414.28
2022-08-07T21:34:32.683Z,102389.25
2022-08-07T21:37:08.355Z,102404.28
2022-08-07T21:39:54.917Z,102394.03
2022-08-07T21:42:42.879Z,102408.84
2022-08-07T21:46:08.049Z,102413.25
2022-08-07T21:48:29.137Z,102413.81
2022-08-07T21:51:19.915Z,102417.13
2022-08-07T21:53:56.508Z,102400.16
2022-08-07T21:56:49.116Z,102418.59
2022-08-07T22:00:03.198Z,102413.66
2022-08-07T22:02:35.372Z,102425.03
2022-08-07T22:05:07.283Z,102431.22
2022-08-07T22:07:59.344Z,102439.44
2022-08-07T22:10:35.420Z,102439.75
2022-08-07T22:13:12.701Z,102400.94
2022-08-07T22:16:44.089Z,102431.53
2022-08-07T22:18:43.550Z,102435.00
2022-08-07T22:21:20.478Z,102435.00
2022-08-07T22:23:56.076Z,102427.13
2022-08-07T22:26:31.080Z,102436.84
2022-08-07T22:29:09.031Z,102442.25
2022-08-07T22:32:05.315Z,102445.34
2022-08-07T22:34:53.441Z,102427.16
2022-08-07T22:38:01.614Z,102439.28
2022-08-07T22:40:29.168Z,102453.31
2022-08-07T22:43:07.888Z,102456.09
2022-08-07T22:46:21.461Z,102443.41
2022-08-07T22:49:09.713Z,102450.09
2022-08-07T22:52:36.518Z,102449.47
2022-08-07T22:55:39.860Z,102456.34
2022-08-07T22:58:31.969Z,102447.81
2022-08-07T23:01:16.904Z,102449.59
2022-08-07T23:03:59.979Z,102446.19
2022-08-07T23:06:56.352Z,102454.94
2022-08-07T23:10:05.525Z,102449.97
2022-08-07T23:12:50.854Z,102456.09
2022-08-07T23:16:07.350Z,102455.41
2022-08-07T23:18:42.684Z,102466.97
2022-08-07T23:21:30.331Z,102463.69
2022-08-07T23:24:27.977Z,102460.91
2022-08-07T23:27:12.636Z,102457.53
2022-08-07T23:30:39.356Z,102460.50
2022-08-07T23:34:19.860Z,102455.53
2022-08-07T23:36:17.438Z,102445.22
2022-08-07T23:39:08.624Z,102291.53
2022-08-07T23:42:04.997Z,102463.06
2022-08-07T23:45:15.435Z,102461.69
2022-08-07T23:48:25.540Z,102452.75
2022-08-07T23:51:01.144Z,102466.59
2022-08-07T23:53:49.925Z,102466.66
2022-08-07T23:56:31.202Z,102465.03
